createdAt,value
2022-10-12T00:00:57.675Z,20.57
2022-10-12T00:03:24.730Z,24.90
2022-10-12T00:06:00.369Z,19.97
2022-10-12T00:08:28.806Z,23.10
2022-10-12T00:10:55.938Z,14.97
2022-10-12T00:13:23.029Z,17.13
2022-10-12T00:15:50.165Z,22.93
2022-10-12T00:18:17.509Z,12.70
2022-10-12T00:20:44.694Z,26.47
2022-10-12T00:23:11.798Z,14.60
2022-10-12T00:25:40.809Z,27.13
2022-10-12T00:28:08.710Z,15.10
2022-10-12T00:30:39.683Z,21.70
2022-10-12T00:33:06.776Z,16.90
2022-10-12T00:35:33.847Z,14.73
2022-10-12T00:38:00.988Z,18.10
2022-10-12T00:40:28.162Z,24.13
2022-10-12T00:42:56.609Z,12.50
2022-10-12T00:45:24.557Z,16.43
2022-10-12T00:47:52.816Z,18.73
2022-10-12T00:50:22.039Z,16.70
2022-10-12T00:52:51.203Z,11.70
2022-10-12T00:55:19.657Z,23.43
2022-10-12T00:57:47.631Z,10.23
2022-10-12T01:00:16.891Z,11.43
2022-10-12T01:02:44.239Z,10.20
2022-10-12T01:05:11.939Z,14.33
2022-10-12T01:07:39.345Z,20.97
2022-10-12T01:10:07.142Z,12.63
2022-10-12T01:12:35.068Z,16.63
2022-10-12T01:15:02.217Z,26.13
2022-10-12T01:17:35.392Z,15.63
2022-10-12T01:20:15.719Z,16.23
2022-10-12T01:22:45.332Z,15.60
2022-10-12T01:25:17.878Z,13.73
2022-10-12T01:27:47.067Z,16.63
2022-10-12T01:30:17.172Z,13.97
2022-10-12T01:32:52.837Z,12.67
2022-10-12T01:35:22.290Z,17.53
2022-10-12T01:37:54.193Z,15.73
2022-10-12T01:40:24.637Z,15.33
2022-10-12T01:42:52.192Z,11.60
2022-10-12T01:45:20.700Z,12.87
2022-10-12T01:47:49.072Z,11.80
2022-10-12T01:50:17.365Z,11.40
2022-10-12T01:52:47.318Z,14.23
2022-10-12T01:55:27.741Z,16.60
2022-10-12T01:58:00.758Z,20.87
2022-10-12T02:00:30.464Z,10.90
2022-10-12T02:03:02.049Z,26.10
2022-10-12T02:05:35.169Z,11.40
2022-10-12T02:08:04.564Z,16.47
2022-10-12T02:10:35.911Z,11.30
2022-10-12T02:13:04.768Z,14.70
2022-10-12T02:15:34.066Z,9.80
2022-10-12T02:18:03.192Z,9.40
2022-10-12T02:20:31.541Z,13.63
2022-10-12T02:22:58.885Z,10.80
2022-10-12T02:25:26.667Z,10.77
2022-10-12T02:27:56.352Z,13.30
2022-10-12T02:30:23.534Z,11.53
2022-10-12T02:32:55.287Z,12.53
2022-10-12T02:35:24.679Z,11.77
2022-10-12T02:37:54.249Z,15.60
2022-10-12T02:40:23.889Z,15.80
2022-10-12T02:43:10.364Z,12.27
2022-10-12T02:45:39.076Z,18.13
2022-10-12T02:48:09.868Z,17.90
2022-10-12T02:50:37.390Z,9.93
2022-10-12T02:53:05.101Z,10.70
2022-10-12T02:55:32.206Z,11.73
2022-10-12T02:57:59.314Z,18.70
2022-10-12T03:00:26.493Z,12.40
2022-10-12T03:02:53.622Z,12.97
2022-10-12T03:05:22.044Z,17.30
2022-10-12T03:07:49.142Z,13.23
2022-10-12T03:10:16.268Z,13.83
2022-10-12T03:12:47.757Z,15.77
2022-10-12T03:15:17.024Z,12.03
2022-10-12T03:17:44.133Z,16.10
2022-10-12T03:20:11.640Z,15.73
2022-10-12T03:22:40.109Z,10.47
2022-10-12T03:25:07.457Z,14.50
2022-10-12T03:27:34.636Z,11.80
2022-10-12T03:30:01.770Z,19.73
2022-10-12T03:32:28.871Z,15.87
2022-10-12T03:34:55.977Z,16.40
2022-10-12T03:37:23.072Z,20.13
2022-10-12T03:39:51.501Z,13.17
2022-10-12T03:42:18.591Z,12.80
2022-10-12T03:44:45.719Z,14.07
2022-10-12T03:47:12.802Z,16.17
2022-10-12T03:49:39.914Z,12.63
2022-10-12T03:52:07.040Z,23.97
2022-10-12T03:54:34.206Z,15.13
2022-10-12T03:57:02.646Z,14.27
2022-10-12T03:59:29.721Z,20.50
2022-10-12T04:01:56.881Z,10.57
2022-10-12T04:04:23.975Z,15.80
2022-10-12T04:06:51.052Z,25.30
2022-10-12T04:09:18.162Z,15.20
2022-10-12T04:11:45.226Z,22.20
2022-10-12T04:14:13.660Z,17.90
2022-10-12T04:16:40.740Z,12.97
2022-10-12T04:19:07.834Z,16.90
2022-10-12T04:21:34.935Z,10.17
2022-10-12T04:24:02.083Z,11.70
2022-10-12T04:26:29.181Z,16.60
2022-10-12T04:28:56.347Z,11.57
2022-10-12T04:31:24.860Z,13.60
2022-10-12T04:33:53.130Z,15.00
2022-10-12T04:36:20.248Z,11.17
2022-10-12T04:38:47.368Z,19.23
2022-10-12T04:41:14.438Z,18.23
2022-10-12T04:43:41.528Z,16.33
2022-10-12T04:46:08.610Z,16.13
2022-10-12T04:48:37.038Z,13.70
2022-10-12T04:51:04.516Z,13.70
2022-10-12T04:53:31.673Z,21.40
2022-10-12T04:56:02.589Z,13.30
2022-10-12T04:58:29.891Z,15.67
2022-10-12T05:00:57.038Z,17.03
2022-10-12T05:03:24.429Z,13.27
2022-10-12T05:05:52.840Z,20.23
2022-10-12T05:08:19.959Z,21.53
2022-10-12T05:10:47.108Z,23.47
2022-10-12T05:13:14.562Z,21.53
2022-10-12T05:15:41.997Z,11.27
2022-10-12T05:18:09.101Z,18.87
2022-10-12T05:20:36.464Z,14.27
2022-10-12T05:23:04.947Z,15.73
2022-10-12T05:25:32.070Z,19.30
2022-10-12T05:27:59.198Z,18.63
2022-10-12T05:30:26.453Z,25.83
2022-10-12T05:32:53.570Z,17.97
2022-10-12T05:35:20.763Z,15.40
2022-10-12T05:37:47.894Z,14.20
2022-10-12T05:40:16.434Z,18.70
2022-10-12T05:42:43.522Z,15.03
2022-10-12T05:45:11.240Z,12.13
2022-10-12T05:47:38.663Z,19.83
2022-10-12T05:50:06.503Z,14.10
2022-10-12T05:52:33.719Z,17.70
2022-10-12T05:55:00.768Z,12.90
2022-10-12T05:57:29.202Z,17.60
2022-10-12T05:59:56.329Z,20.93
2022-10-12T06:02:23.432Z,17.07
2022-10-12T06:04:50.532Z,20.87
2022-10-12T06:07:17.621Z,22.33
2022-10-12T06:09:44.735Z,19.13
2022-10-12T06:12:11.851Z,17.27
2022-10-12T06:14:40.316Z,14.40
2022-10-12T06:17:07.410Z,28.63
2022-10-12T06:19:34.511Z,19.87
2022-10-12T06:22:01.665Z,18.00
2022-10-12T06:24:28.770Z,19.60
2022-10-12T06:26:55.869Z,17.20
2022-10-12T06:29:23.118Z,19.20
2022-10-12T06:31:52.074Z,15.03
2022-10-12T06:34:19.310Z,16.53
2022-10-12T06:36:46.425Z,11.77
2022-10-12T06:39:13.644Z,15.20
2022-10-12T06:41:40.734Z,16.80
2022-10-12T06:44:09.454Z,12.17
2022-10-12T06:46:36.565Z,11.20
2022-10-12T06:49:05.040Z,10.50
2022-10-12T06:51:32.152Z,9.27
2022-10-12T06:53:59.275Z,11.20
2022-10-12T06:56:26.346Z,12.00
2022-10-12T06:58:56.897Z,19.33
2022-10-12T07:01:24.077Z,10.67
2022-10-12T07:03:51.225Z,13.50
2022-10-12T07:06:19.675Z,12.80
2022-10-12T07:08:46.774Z,13.23
2022-10-12T07:11:14.209Z,13.27
2022-10-12T07:13:41.321Z,19.43
2022-10-12T07:16:08.640Z,9.90
2022-10-12T07:18:35.738Z,17.43
2022-10-12T07:21:02.980Z,14.63
2022-10-12T07:23:32.002Z,14.10
2022-10-12T07:25:59.280Z,15.87
2022-10-12T07:28:27.056Z,16.40
2022-10-12T07:30:54.339Z,11.53
2022-10-12T07:33:21.439Z,9.77
2022-10-12T07:36:12.702Z,7.43
2022-10-12T07:38:43.014Z,9.20
2022-10-12T07:41:10.123Z,12.67
2022-10-12T07:43:37.263Z,7.93
2022-10-12T07:46:04.690Z,12.67
2022-10-12T07:48:31.994Z,11.53
2022-10-12T07:51:03.561Z,11.67
2022-10-12T07:53:30.700Z,9.63
2022-10-12T07:56:02.011Z,7.70
2022-10-12T07:58:29.124Z,10.10
2022-10-12T08:00:56.227Z,9.33
2022-10-12T08:03:23.361Z,7.60
2022-10-12T08:05:50.447Z,6.97
2022-10-12T08:08:17.614Z,10.93
2022-10-12T08:10:44.688Z,10.00
2022-10-12T08:13:13.122Z,8.20
2022-10-12T08:15:40.230Z,8.17
2022-10-12T08:18:07.366Z,10.93
2022-10-12T08:20:34.463Z,8.00
2022-10-12T08:23:01.547Z,5.10
2022-10-12T08:25:28.616Z,14.07
2022-10-12T08:27:55.729Z,8.73
2022-10-12T08:30:24.122Z,6.00
2022-10-12T08:32:51.229Z,5.60
2022-10-12T08:35:18.304Z,9.37
2022-10-12T08:37:45.418Z,5.93
2022-10-12T08:40:15.272Z,7.10
2022-10-12T08:42:46.033Z,7.53
2022-10-12T08:45:25.502Z,10.03
2022-10-12T08:47:59.353Z,14.60
2022-10-12T08:50:30.110Z,10.23
2022-10-12T08:53:01.624Z,15.20
2022-10-12T08:55:32.370Z,11.37
2022-10-12T08:57:59.480Z,7.40
2022-10-12T09:00:27.597Z,7.27
2022-10-12T09:03:04.010Z,8.50
2022-10-12T09:05:34.722Z,12.87
2022-10-12T09:08:04.513Z,9.50
2022-10-12T09:10:37.854Z,11.83
2022-10-12T09:13:11.084Z,11.70
2022-10-12T09:15:39.611Z,7.63
2022-10-12T09:18:15.804Z,13.63
2022-10-12T09:20:46.635Z,6.87
2022-10-12T09:23:22.603Z,7.80
2022-10-12T09:25:49.694Z,8.93
2022-10-12T09:28:20.273Z,10.37
2022-10-12T09:30:53.534Z,10.43
2022-10-12T09:33:24.467Z,8.10
2022-10-12T09:35:53.480Z,7.70
2022-10-12T09:38:20.616Z,9.27
2022-10-12T09:40:48.047Z,15.10
2022-10-12T09:43:15.551Z,12.07
2022-10-12T09:45:43.073Z,9.50
2022-10-12T09:48:14.471Z,8.03
2022-10-12T09:50:44.650Z,9.10
2022-10-12T09:53:19.762Z,5.70
2022-10-12T09:55:52.418Z,9.83
2022-10-12T09:58:20.973Z,7.70
2022-10-12T10:01:08.081Z,6.77
2022-10-12T10:03:36.497Z,9.27
2022-10-12T10:06:04.535Z,11.83
2022-10-12T10:08:39.488Z,8.03
2022-10-12T10:11:06.883Z,11.60
2022-10-12T10:13:36.921Z,12.23
2022-10-12T10:16:05.514Z,11.90
2022-10-12T10:18:35.123Z,10.40
2022-10-12T10:21:04.811Z,7.10
2022-10-12T10:23:33.472Z,12.60
2022-10-12T10:26:05.320Z,8.20
2022-10-12T10:28:33.395Z,11.07
2022-10-12T10:31:01.558Z,11.57
2022-10-12T10:33:29.144Z,10.33
2022-10-12T10:35:59.007Z,9.83
2022-10-12T10:38:27.725Z,6.70
2022-10-12T10:40:56.426Z,10.80
2022-10-12T10:43:26.403Z,11.40
2022-10-12T10:45:55.047Z,12.40
2022-10-12T10:48:23.647Z,10.20
2022-10-12T10:50:52.390Z,11.90
2022-10-12T10:53:21.453Z,11.00
2022-10-12T10:55:52.770Z,10.97
2022-10-12T10:58:28.198Z,8.90
2022-10-12T11:00:57.459Z,13.13
2022-10-12T11:03:25.856Z,7.73
2022-10-12T11:05:56.952Z,7.83
2022-10-12T11:08:26.317Z,11.80
2022-10-12T11:10:56.374Z,10.40
2022-10-12T11:13:24.945Z,8.47
2022-10-12T11:15:55.077Z,16.43
2022-10-12T11:18:24.582Z,11.33
2022-10-12T11:20:53.671Z,11.70
2022-10-12T11:23:26.339Z,12.73
2022-10-12T11:26:00.624Z,12.73
2022-10-12T11:28:29.475Z,11.40
2022-10-12T11:30:56.782Z,10.93
2022-10-12T11:33:26.733Z,9.50
2022-10-12T11:35:54.949Z,14.73
2022-10-12T11:38:24.327Z,11.63
2022-10-12T11:41:13.932Z,13.00
2022-10-12T11:43:46.887Z,12.80
2022-10-12T11:46:16.285Z,10.37
2022-10-12T11:48:46.714Z,11.37
2022-10-12T11:51:13.825Z,19.27
2022-10-12T11:53:44.372Z,13.70
2022-10-12T11:56:16.159Z,11.30
2022-10-12T11:59:01.978Z,14.87
2022-10-12T12:01:44.193Z,13.97
2022-10-12T12:04:40.372Z,17.53
2022-10-12T12:07:04.381Z,9.33
2022-10-12T12:09:36.086Z,8.30
2022-10-12T12:12:14.165Z,12.47
2022-10-12T12:14:46.832Z,11.07
2022-10-12T12:17:21.277Z,14.43
2022-10-12T12:19:49.160Z,9.67
2022-10-12T12:22:20.307Z,14.93
2022-10-12T12:24:55.021Z,11.30
2022-10-12T12:27:24.169Z,19.63
2022-10-12T12:29:53.162Z,12.60
2022-10-12T12:32:20.657Z,14.03
2022-10-12T12:34:54.449Z,11.03
2022-10-12T12:37:26.986Z,8.90
2022-10-12T12:39:55.338Z,8.93
2022-10-12T12:42:24.011Z,11.00
2022-10-12T12:44:52.499Z,11.10
2022-10-12T12:47:44.063Z,9.60
2022-10-12T12:50:28.372Z,13.13
2022-10-12T12:53:01.653Z,13.67
2022-10-12T12:55:38.288Z,10.97
2022-10-12T12:58:26.046Z,9.17
2022-10-12T13:00:59.922Z,9.57
2022-10-12T13:03:36.075Z,11.33
2022-10-12T13:06:21.995Z,9.20
2022-10-12T13:09:01.961Z,5.93
2022-10-12T13:11:35.790Z,9.20
2022-10-12T13:14:08.731Z,9.40
2022-10-12T13:17:30.694Z,9.93
2022-10-12T13:19:34.130Z,12.27
2022-10-12T13:22:03.720Z,12.53
2022-10-12T13:24:32.500Z,9.87
2022-10-12T13:27:01.273Z,12.20
2022-10-12T13:29:34.045Z,15.07
2022-10-12T13:32:03.990Z,9.23
2022-10-12T13:34:37.049Z,8.40
2022-10-12T13:37:05.440Z,6.07
2022-10-12T13:39:38.784Z,8.17
2022-10-12T13:42:06.133Z,10.03
2022-10-12T13:44:35.367Z,7.50
2022-10-12T13:47:09.413Z,8.07
2022-10-12T13:49:42.484Z,7.50
2022-10-12T13:52:17.768Z,12.60
2022-10-12T13:54:45.543Z,8.50
2022-10-12T13:57:18.543Z,10.03
2022-10-12T13:59:45.670Z,10.40
2022-10-12T14:02:18.922Z,10.87
2022-10-12T14:04:46.065Z,5.37
2022-10-12T14:07:17.606Z,8.67
2022-10-12T14:09:46.129Z,8.90
2022-10-12T14:12:13.747Z,5.87
2022-10-12T14:14:41.849Z,8.90
2022-10-12T14:17:14.276Z,8.33
2022-10-12T14:19:46.261Z,9.13
2022-10-12T14:22:13.471Z,16.87
2022-10-12T14:24:40.769Z,7.20
2022-10-12T14:27:08.639Z,7.40
2022-10-12T14:29:40.879Z,10.90
2022-10-12T14:32:08.574Z,9.13
2022-10-12T14:34:42.818Z,12.83
2022-10-12T14:37:23.267Z,8.43
2022-10-12T14:39:50.692Z,8.77
2022-10-12T14:42:21.870Z,10.57
2022-10-12T14:44:49.129Z,11.53
2022-10-12T14:47:18.500Z,8.07
2022-10-12T14:49:46.746Z,11.77
2022-10-12T14:52:17.733Z,11.73
2022-10-12T14:54:49.674Z,8.17
2022-10-12T14:57:17.563Z,8.07
2022-10-12T14:59:44.707Z,19.60
2022-10-12T15:02:14.673Z,8.27
2022-10-12T15:04:41.798Z,13.10
2022-10-12T15:07:14.102Z,8.10
2022-10-12T15:09:41.362Z,6.73
2022-10-12T15:12:10.881Z,10.23
2022-10-12T15:14:37.991Z,10.50
2022-10-12T15:17:05.090Z,12.50
2022-10-12T15:19:32.171Z,10.37
2022-10-12T15:21:59.310Z,11.90
2022-10-12T15:24:26.412Z,9.60
2022-10-12T15:26:53.481Z,13.10
2022-10-12T15:29:21.930Z,12.00
2022-10-12T15:31:51.247Z,11.90
2022-10-12T15:34:18.477Z,8.07
2022-10-12T15:36:45.550Z,10.77
2022-10-12T15:39:12.645Z,12.70
2022-10-12T15:41:39.727Z,9.07
2022-10-12T15:44:07.204Z,10.73
2022-10-12T15:46:35.642Z,15.50
2022-10-12T15:49:02.739Z,8.87
2022-10-12T15:51:29.937Z,12.53
2022-10-12T15:53:57.006Z,14.20
2022-10-12T15:56:24.103Z,12.40
2022-10-12T15:58:51.383Z,11.47
2022-10-12T16:01:19.983Z,10.97
2022-10-12T16:03:49.103Z,8.20
2022-10-12T16:06:16.426Z,10.20
2022-10-12T16:08:43.743Z,14.10
2022-10-12T16:11:13.072Z,10.97
2022-10-12T16:13:46.835Z,15.13
2022-10-12T16:16:16.452Z,10.90
2022-10-12T16:18:43.578Z,13.33
2022-10-12T16:21:12.085Z,11.63
2022-10-12T16:23:39.831Z,12.30
2022-10-12T16:26:08.278Z,10.30
2022-10-12T16:28:35.741Z,8.30
2022-10-12T16:31:02.847Z,13.37
2022-10-12T16:33:29.986Z,10.50
2022-10-12T16:35:57.255Z,19.83
2022-10-12T16:38:25.727Z,11.23
2022-10-12T16:40:52.796Z,14.63
2022-10-12T16:43:19.898Z,17.03
2022-10-12T16:45:54.863Z,11.00
2022-10-12T16:48:21.960Z,13.13
2022-10-12T16:50:49.053Z,13.00
2022-10-12T16:53:16.141Z,13.33
2022-10-12T16:55:44.615Z,20.07
2022-10-12T16:58:11.728Z,7.67
2022-10-12T17:00:38.868Z,15.70
2022-10-12T17:03:06.004Z,11.60
2022-10-12T17:05:33.114Z,15.87
2022-10-12T17:08:00.398Z,12.00
2022-10-12T17:10:27.514Z,12.13
2022-10-12T17:12:55.937Z,12.23
2022-10-12T17:15:23.017Z,18.50
2022-10-12T17:17:50.163Z,16.03
2022-10-12T17:20:17.290Z,10.00
2022-10-12T17:22:44.373Z,19.70
2022-10-12T17:25:11.475Z,18.40
2022-10-12T17:27:38.638Z,15.37
2022-10-12T17:30:07.877Z,13.00
2022-10-12T17:32:34.952Z,12.93
2022-10-12T17:35:02.050Z,21.53
2022-10-12T17:37:29.151Z,11.63
2022-10-12T17:39:56.214Z,14.83
2022-10-12T17:42:23.309Z,8.50
2022-10-12T17:44:50.443Z,14.23
2022-10-12T17:47:19.164Z,25.73
2022-10-12T17:49:46.554Z,13.67
2022-10-12T17:52:13.751Z,11.27
2022-10-12T17:54:40.989Z,13.67
2022-10-12T17:57:08.057Z,22.93
2022-10-12T17:59:35.174Z,12.97
2022-10-12T18:02:02.267Z,12.33
2022-10-12T18:04:30.713Z,12.00
2022-10-12T18:06:57.776Z,13.13
2022-10-12T18:09:24.895Z,17.97
2022-10-12T18:11:52.070Z,12.37
2022-10-12T18:14:19.366Z,14.83
2022-10-12T18:16:46.471Z,14.83
2022-10-12T18:19:13.596Z,13.97
2022-10-12T18:21:42.085Z,15.13
2022-10-12T18:24:15.657Z,13.43
2022-10-12T18:26:43.824Z,17.53
2022-10-12T18:29:11.004Z,16.93
2022-10-12T18:31:38.095Z,11.53
2022-10-12T18:34:06.600Z,18.93
2022-10-12T18:36:33.807Z,17.73
2022-10-12T18:39:03.123Z,20.30
2022-10-12T18:41:30.605Z,15.20
2022-10-12T18:43:58.079Z,16.20
2022-10-12T18:46:26.092Z,24.43
2022-10-12T18:48:53.168Z,15.13
2022-10-12T18:51:21.366Z,18.00
2022-10-12T18:53:48.519Z,13.00
2022-10-12T18:56:17.126Z,19.67
2022-10-12T18:58:44.254Z,18.73
2022-10-12T19:01:11.830Z,15.50
2022-10-12T19:03:38.994Z,19.17
2022-10-12T19:06:06.918Z,14.20
2022-10-12T19:08:34.134Z,19.40
2022-10-12T19:11:01.208Z,22.83
2022-10-12T19:13:29.641Z,18.23
2022-10-12T19:15:56.729Z,15.60
2022-10-12T19:18:23.822Z,15.63
2022-10-12T19:20:50.933Z,21.73
2022-10-12T19:23:18.041Z,27.17
2022-10-12T19:25:45.129Z,16.83
2022-10-12T19:28:12.242Z,14.87
2022-10-12T19:30:40.708Z,16.60
2022-10-12T19:33:07.819Z,27.43
2022-10-12T19:35:36.777Z,20.47
2022-10-12T19:38:03.959Z,20.13
2022-10-12T19:40:31.070Z,18.40
2022-10-12T19:42:58.187Z,23.03
2022-10-12T19:45:25.241Z,24.53
2022-10-12T19:47:53.654Z,27.97
2022-10-12T19:50:20.753Z,22.87
2022-10-12T19:52:47.821Z,23.20
2022-10-12T19:55:14.931Z,19.77
2022-10-12T19:57:41.995Z,23.10
2022-10-12T20:00:09.894Z,24.07
2022-10-12T20:02:38.747Z,20.13
2022-10-12T20:05:07.541Z,22.67
2022-10-12T20:07:34.615Z,20.47
2022-10-12T20:10:01.761Z,19.90
2022-10-12T20:12:28.817Z,17.83
2022-10-12T20:14:55.909Z,24.43
2022-10-12T20:17:23.020Z,18.07
2022-10-12T20:19:50.106Z,20.43
2022-10-12T20:22:19.183Z,20.40
2022-10-12T20:24:46.589Z,28.70
2022-10-12T20:27:13.718Z,25.50
2022-10-12T20:29:40.849Z,17.53
2022-10-12T20:32:07.955Z,22.23
2022-10-12T20:34:35.113Z,22.10
2022-10-12T20:37:02.228Z,20.40
2022-10-12T20:39:30.673Z,17.10
2022-10-12T20:41:57.790Z,18.93
2022-10-12T20:44:24.848Z,22.80
2022-10-12T20:46:55.178Z,30.43
2022-10-12T20:49:22.245Z,20.27
2022-10-12T20:51:49.345Z,23.20
2022-10-12T20:54:16.628Z,24.10
2022-10-12T20:56:45.662Z,13.17
2022-10-12T20:59:12.791Z,18.87
2022-10-12T21:01:39.903Z,31.63
2022-10-12T21:04:06.982Z,18.53
2022-10-12T21:06:35.251Z,23.57
2022-10-12T21:09:02.502Z,21.13
2022-10-12T21:11:29.700Z,16.67
2022-10-12T21:13:58.239Z,22.90
2022-10-12T21:16:25.616Z,20.23
2022-10-12T21:18:54.017Z,26.30
2022-10-12T21:21:21.220Z,17.97
2022-10-12T21:23:51.974Z,24.30
2022-10-12T21:26:20.448Z,26.33
2022-10-12T21:28:47.689Z,21.43
2022-10-12T21:31:16.672Z,25.03
2022-10-12T21:33:43.886Z,22.17
2022-10-12T21:36:12.430Z,22.30
2022-10-12T21:38:39.775Z,23.50
2022-10-12T21:41:07.777Z,22.33
2022-10-12T21:43:34.863Z,22.90
2022-10-12T21:46:02.529Z,21.27
2022-10-12T21:48:31.842Z,27.40
2022-10-12T21:50:59.097Z,17.97
2022-10-12T21:53:26.206Z,23.00
2022-10-12T21:55:53.286Z,24.80
2022-10-12T21:58:20.420Z,26.30
2022-10-12T22:00:47.665Z,21.33
2022-10-12T22:03:14.831Z,25.13
2022-10-12T22:05:43.824Z,27.23
2022-10-12T22:08:11.454Z,22.40
2022-10-12T22:10:38.936Z,25.30
2022-10-12T22:13:06.103Z,20.63
2022-10-12T22:15:33.214Z,27.40
2022-10-12T22:18:10.274Z,31.63
2022-10-12T22:20:37.504Z,25.37
2022-10-12T22:23:06.126Z,26.27
2022-10-12T22:25:33.212Z,26.20
2022-10-12T22:28:00.280Z,23.90
2022-10-12T22:30:29.651Z,34.73
2022-10-12T22:32:56.734Z,25.77
2022-10-12T22:35:23.996Z,21.70
2022-10-12T22:37:51.085Z,23.60
2022-10-12T22:40:19.843Z,23.37
2022-10-12T22:42:46.928Z,26.00
2022-10-12T22:45:14.159Z,23.03
2022-10-12T22:47:41.322Z,22.87
2022-10-12T22:50:08.797Z,25.07
2022-10-12T22:52:35.871Z,30.97
2022-10-12T22:55:02.969Z,25.97
2022-10-12T22:57:31.677Z,25.90
2022-10-12T22:59:58.773Z,18.73
2022-10-12T23:02:31.330Z,28.20
2022-10-12T23:04:58.417Z,25.67
2022-10-12T23:07:25.502Z,22.60
2022-10-12T23:09:52.624Z,26.40
2022-10-12T23:12:20.173Z,21.57
2022-10-12T23:14:50.859Z,27.20
2022-10-12T23:17:17.937Z,21.93
2022-10-12T23:19:45.034Z,23.23
2022-10-12T23:22:12.177Z,19.23
2022-10-12T23:24:40.167Z,25.67
2022-10-12T23:27:07.236Z,25.13
2022-10-12T23:29:34.338Z,25.33
2022-10-12T23:32:02.756Z,23.87
2022-10-12T23:34:30.002Z,29.73
2022-10-12T23:36:57.082Z,23.23
2022-10-12T23:39:24.209Z,21.13
2022-10-12T23:41:51.316Z,23.40
2022-10-12T23:44:18.402Z,21.50
2022-10-12T23:46:45.542Z,25.90
2022-10-12T23:49:13.995Z,23.40
2022-10-12T23:51:41.128Z,23.60
2022-10-12T23:54:08.314Z,23.20
2022-10-12T23:56:35.408Z,21.47
2022-10-12T23:59:02.527Z,20.90
